ZW-0025 weather

Kanyemba Airport
Kanyemba, Mashonaland Central Province, Zimbabwe

Public forecast

Using degrees Celsius for public forecast. Weather courtesy of forecast.io.

METAR (pilot weather report)

Report is more than 6 hours old.

Closest report is Kariba International Airport, 100.8 nm (186.8 km) WSW. Retrieved 2019/08/11 15:00 UTC (6 days ago):

FVKB 111500Z 00000KT CAVOK 28/12 Q1017

TAF (pilot weather forecast)

Forecast is more than 12 hours old.

Closest forecast is Jeki Airport, 45.5 nm (84.3 km) W. Retrieved 2019/08/16 12:00 UTC (24 hours ago):

TAF FLJK 161000Z 1612/1718 11010KT 9000 HZ FEW048 FM161800 08005KT CAVOK BECMG 1704/1706 09005KT 9000 HZ NSC BECMG 1708/1710 12010KT